sensor_id;sensor_type;location;lat;lon;timestamp;temperature;humidity
9450;DHT22;4763;48.370;10.874;2022-11-24T00:02:27;6.50;99.90
9450;DHT22;4763;48.370;10.874;2022-11-24T00:05:14;6.40;99.90
9450;DHT22;4763;48.370;10.874;2022-11-24T00:08:01;6.40;99.90
9450;DHT22;4763;48.370;10.874;2022-11-24T00:10:49;6.50;99.90
9450;DHT22;4763;48.370;10.874;2022-11-24T00:13:36;6.40;99.90
9450;DHT22;4763;48.370;10.874;2022-11-24T00:16:27;6.50;99.90
9450;DHT22;4763;48.370;10.874;2022-11-24T00:19:14;6.50;99.90
9450;DHT22;4763;48.370;10.874;2022-11-24T00:22:02;6.50;99.90
9450;DHT22;4763;48.370;10.874;2022-11-24T00:24:49;6.50;99.90
9450;DHT22;4763;48.370;10.874;2022-11-24T00:27:36;6.50;99.90
9450;DHT22;4763;48.370;10.874;2022-11-24T00:30:23;6.50;99.90
9450;DHT22;4763;48.370;10.874;2022-11-24T00:33:12;6.50;99.90
9450;DHT22;4763;48.370;10.874;2022-11-24T00:36:00;6.60;99.90
9450;DHT22;4763;48.370;10.874;2022-11-24T00:38:52;6.60;99.90
9450;DHT22;4763;48.370;10.874;2022-11-24T00:41:40;6.60;99.90
9450;DHT22;4763;48.370;10.874;2022-11-24T00:44:30;6.50;99.90
9450;DHT22;4763;48.370;10.874;2022-11-24T00:47:18;6.50;99.90
9450;DHT22;4763;48.370;10.874;2022-11-24T00:50:07;6.50;99.90
9450;DHT22;4763;48.370;10.874;2022-11-24T00:52:55;6.50;99.90
9450;DHT22;4763;48.370;10.874;2022-11-24T00:55:43;6.50;99.90
9450;DHT22;4763;48.370;10.874;2022-11-24T00:58:34;6.40;99.90
9450;DHT22;4763;48.370;10.874;2022-11-24T01:01:23;6.40;99.90
9450;DHT22;4763;48.370;10.874;2022-11-24T01:04:11;6.40;99.90
9450;DHT22;4763;48.370;10.874;2022-11-24T01:06:59;6.40;99.90
9450;DHT22;4763;48.370;10.874;2022-11-24T01:09:47;6.30;99.90
9450;DHT22;4763;48.370;10.874;2022-11-24T01:12:34;6.30;99.90
9450;DHT22;4763;48.370;10.874;2022-11-24T01:15:22;6.30;99.90
9450;DHT22;4763;48.370;10.874;2022-11-24T01:18:09;6.30;99.90
9450;DHT22;4763;48.370;10.874;2022-11-24T01:20:58;6.30;99.90
9450;DHT22;4763;48.370;10.874;2022-11-24T01:23:46;6.40;99.90
9450;DHT22;4763;48.370;10.874;2022-11-24T01:26:37;6.30;99.90
9450;DHT22;4763;48.370;10.874;2022-11-24T01:29:24;6.30;99.90
9450;DHT22;4763;48.370;10.874;2022-11-24T01:32:15;6.40;99.90
9450;DHT22;4763;48.370;10.874;2022-11-24T01:35:02;6.30;99.90
9450;DHT22;4763;48.370;10.874;2022-11-24T01:37:50;6.30;99.90
9450;DHT22;4763;48.370;10.874;2022-11-24T01:40:38;6.30;99.90
9450;DHT22;4763;48.370;10.874;2022-11-24T01:43:25;6.40;99.90
9450;DHT22;4763;48.370;10.874;2022-11-24T01:46:16;6.40;99.90
9450;DHT22;4763;48.370;10.874;2022-11-24T01:49:11;6.40;99.90
9450;DHT22;4763;48.370;10.874;2022-11-24T01:52:03;6.40;99.90
9450;DHT22;4763;48.370;10.874;2022-11-24T01:54:55;6.40;99.90
9450;DHT22;4763;48.370;10.874;2022-11-24T01:57:46;6.40;99.90
9450;DHT22;4763;48.370;10.874;2022-11-24T02:00:35;6.40;99.90
9450;DHT22;4763;48.370;10.874;2022-11-24T02:03:26;6.40;99.90
9450;DHT22;4763;48.370;10.874;2022-11-24T02:06:17;6.40;99.90
9450;DHT22;4763;48.370;10.874;2022-11-24T02:09:12;6.40;99.90
9450;DHT22;4763;48.370;10.874;2022-11-24T02:12:00;6.30;99.90
9450;DHT22;4763;48.370;10.874;2022-11-24T02:14:49;6.40;99.90
9450;DHT22;4763;48.370;10.874;2022-11-24T02:17:37;6.40;99.90
9450;DHT22;4763;48.370;10.874;2022-11-24T02:20:25;6.30;99.90
9450;DHT22;4763;48.370;10.874;2022-11-24T02:23:16;6.30;99.90
9450;DHT22;4763;48.370;10.874;2022-11-24T02:26:14;6.20;99.90
9450;DHT22;4763;48.370;10.874;2022-11-24T02:29:08;6.20;99.90
9450;DHT22;4763;48.370;10.874;2022-11-24T02:31:59;6.20;99.90
9450;DHT22;4763;48.370;10.874;2022-11-24T02:34:47;6.10;99.90
9450;DHT22;4763;48.370;10.874;2022-11-24T02:37:34;6.20;99.90
9450;DHT22;4763;48.370;10.874;2022-11-24T02:40:23;6.20;99.90
9450;DHT22;4763;48.370;10.874;2022-11-24T02:43:14;6.20;99.90
9450;DHT22;4763;48.370;10.874;2022-11-24T02:46:03;6.20;99.90
9450;DHT22;4763;48.370;10.874;2022-11-24T02:48:51;6.20;99.90
9450;DHT22;4763;48.370;10.874;2022-11-24T02:51:39;6.30;99.90
9450;DHT22;4763;48.370;10.874;2022-11-24T02:54:26;6.30;99.90
9450;DHT22;4763;48.370;10.874;2022-11-24T02:57:13;6.30;99.90
9450;DHT22;4763;48.370;10.874;2022-11-24T03:00:00;6.30;99.90
9450;DHT22;4763;48.370;10.874;2022-11-24T03:02:49;6.20;99.90
9450;DHT22;4763;48.370;10.874;2022-11-24T03:05:37;6.30;99.90
9450;DHT22;4763;48.370;10.874;2022-11-24T03:08:24;6.30;99.90
9450;DHT22;4763;48.370;10.874;2022-11-24T03:11:11;6.40;99.90
9450;DHT22;4763;48.370;10.874;2022-11-24T03:13:58;6.40;99.90
9450;DHT22;4763;48.370;10.874;2022-11-24T03:16:45;6.40;99.90
9450;DHT22;4763;48.370;10.874;2022-11-24T03:19:34;6.50;99.90
9450;DHT22;4763;48.370;10.874;2022-11-24T03:22:21;6.40;99.90
9450;DHT22;4763;48.370;10.874;2022-11-24T03:25:08;6.40;99.90
9450;DHT22;4763;48.370;10.874;2022-11-24T03:27:56;6.30;99.90
9450;DHT22;4763;48.370;10.874;2022-11-24T03:30:43;6.40;99.90
9450;DHT22;4763;48.370;10.874;2022-11-24T03:33:30;6.40;99.90
9450;DHT22;4763;48.370;10.874;2022-11-24T03:36:18;6.40;99.90
9450;DHT22;4763;48.370;10.874;2022-11-24T03:39:06;6.40;99.90
9450;DHT22;4763;48.370;10.874;2022-11-24T03:41:53;6.30;99.90
9450;DHT22;4763;48.370;10.874;2022-11-24T03:44:40;6.30;99.90
9450;DHT22;4763;48.370;10.874;2022-11-24T03:47:27;6.30;99.90
9450;DHT22;4763;48.370;10.874;2022-11-24T03:50:14;6.30;99.90
9450;DHT22;4763;48.370;10.874;2022-11-24T03:53:03;6.40;99.90
9450;DHT22;4763;48.370;10.874;2022-11-24T03:55:50;6.50;99.90
9450;DHT22;4763;48.370;10.874;2022-11-24T03:58:37;6.40;99.90
9450;DHT22;4763;48.370;10.874;2022-11-24T04:01:24;6.50;99.90
9450;DHT22;4763;48.370;10.874;2022-11-24T04:04:12;6.40;99.90
9450;DHT22;4763;48.370;10.874;2022-11-24T04:06:59;6.50;99.90
9450;DHT22;4763;48.370;10.874;2022-11-24T04:09:47;6.40;99.90
9450;DHT22;4763;48.370;10.874;2022-11-24T04:12:34;6.40;99.90
9450;DHT22;4763;48.370;10.874;2022-11-24T04:15:30;6.50;99.90
9450;DHT22;4763;48.370;10.874;2022-11-24T04:18:18;6.50;99.90
9450;DHT22;4763;48.370;10.874;2022-11-24T04:21:05;6.60;99.90
9450;DHT22;4763;48.370;10.874;2022-11-24T04:23:52;6.60;99.90
9450;DHT22;4763;48.370;10.874;2022-11-24T04:26:41;6.50;99.90
9450;DHT22;4763;48.370;10.874;2022-11-24T04:29:30;6.60;99.90
9450;DHT22;4763;48.370;10.874;2022-11-24T04:32:17;6.60;99.90
9450;DHT22;4763;48.370;10.874;2022-11-24T04:35:05;6.50;99.90
9450;DHT22;4763;48.370;10.874;2022-11-24T04:37:52;6.50;99.90
9450;DHT22;4763;48.370;10.874;2022-11-24T04:40:39;6.50;99.90
9450;DHT22;4763;48.370;10.874;2022-11-24T04:43:27;6.50;99.90
9450;DHT22;4763;48.370;10.874;2022-11-24T04:46:15;6.40;99.90
9450;DHT22;4763;48.370;10.874;2022-11-24T04:49:02;6.50;99.90
9450;DHT22;4763;48.370;10.874;2022-11-24T04:51:49;6.50;99.90
9450;DHT22;4763;48.370;10.874;2022-11-24T04:54:36;6.40;99.90
9450;DHT22;4763;48.370;10.874;2022-11-24T04:57:24;6.40;99.90
9450;DHT22;4763;48.370;10.874;2022-11-24T05:00:14;6.40;99.90
9450;DHT22;4763;48.370;10.874;2022-11-24T05:03:01;6.40;99.90
9450;DHT22;4763;48.370;10.874;2022-11-24T05:05:48;6.40;99.90
9450;DHT22;4763;48.370;10.874;2022-11-24T05:08:35;6.40;99.90
9450;DHT22;4763;48.370;10.874;2022-11-24T05:11:22;6.40;99.90
9450;DHT22;4763;48.370;10.874;2022-11-24T05:14:09;6.30;99.90
9450;DHT22;4763;48.370;10.874;2022-11-24T05:16:58;6.30;99.90
9450;DHT22;4763;48.370;10.874;2022-11-24T05:19:45;6.40;99.90
9450;DHT22;4763;48.370;10.874;2022-11-24T05:22:33;6.40;99.90
9450;DHT22;4763;48.370;10.874;2022-11-24T05:25:20;6.50;99.90
9450;DHT22;4763;48.370;10.874;2022-11-24T05:28:08;6.50;99.90
9450;DHT22;4763;48.370;10.874;2022-11-24T05:30:58;6.60;99.90
9450;DHT22;4763;48.370;10.874;2022-11-24T05:33:47;6.60;99.90
9450;DHT22;4763;48.370;10.874;2022-11-24T05:36:34;6.70;99.90
9450;DHT22;4763;48.370;10.874;2022-11-24T05:39:39;6.70;99.90
9450;DHT22;4763;48.370;10.874;2022-11-24T05:42:26;6.60;99.90
9450;DHT22;4763;48.370;10.874;2022-11-24T05:45:26;6.70;99.90
9450;DHT22;4763;48.370;10.874;2022-11-24T05:48:14;6.70;99.90
9450;DHT22;4763;48.370;10.874;2022-11-24T05:51:02;6.60;99.90
9450;DHT22;4763;48.370;10.874;2022-11-24T05:53:50;6.60;99.90
9450;DHT22;4763;48.370;10.874;2022-11-24T05:56:37;6.70;99.90
9450;DHT22;4763;48.370;10.874;2022-11-24T05:59:24;6.60;99.90
9450;DHT22;4763;48.370;10.874;2022-11-24T06:02:11;6.60;99.90
9450;DHT22;4763;48.370;10.874;2022-11-24T06:04:58;6.70;99.90
9450;DHT22;4763;48.370;10.874;2022-11-24T06:07:47;6.60;99.90
9450;DHT22;4763;48.370;10.874;2022-11-24T06:10:34;6.60;99.90
9450;DHT22;4763;48.370;10.874;2022-11-24T06:13:21;6.60;99.90
9450;DHT22;4763;48.370;10.874;2022-11-24T06:16:08;6.60;99.90
9450;DHT22;4763;48.370;10.874;2022-11-24T06:18:56;6.60;99.90
9450;DHT22;4763;48.370;10.874;2022-11-24T06:21:43;6.60;99.90
9450;DHT22;4763;48.370;10.874;2022-11-24T06:24:31;6.50;99.90
9450;DHT22;4763;48.370;10.874;2022-11-24T06:27:18;6.50;99.90
9450;DHT22;4763;48.370;10.874;2022-11-24T06:30:08;6.50;99.90
9450;DHT22;4763;48.370;10.874;2022-11-24T06:32:55;6.50;99.90
9450;DHT22;4763;48.370;10.874;2022-11-24T06:35:50;6.40;99.90
9450;DHT22;4763;48.370;10.874;2022-11-24T06:38:38;6.40;99.90
9450;DHT22;4763;48.370;10.874;2022-11-24T06:41:26;6.50;99.90
9450;DHT22;4763;48.370;10.874;2022-11-24T06:44:13;6.40;99.90
9450;DHT22;4763;48.370;10.874;2022-11-24T06:47:00;6.40;99.90
9450;DHT22;4763;48.370;10.874;2022-11-24T06:49:47;6.40;99.90
9450;DHT22;4763;48.370;10.874;2022-11-24T06:52:34;6.30;99.90
9450;DHT22;4763;48.370;10.874;2022-11-24T06:55:21;6.30;99.90
9450;DHT22;4763;48.370;10.874;2022-11-24T06:58:10;6.30;99.90
9450;DHT22;4763;48.370;10.874;2022-11-24T07:00:57;6.40;99.90
9450;DHT22;4763;48.370;10.874;2022-11-24T07:03:44;6.40;99.90
9450;DHT22;4763;48.370;10.874;2022-11-24T07:06:32;6.40;99.90
9450;DHT22;4763;48.370;10.874;2022-11-24T07:09:19;6.40;99.90
9450;DHT22;4763;48.370;10.874;2022-11-24T07:12:06;6.50;99.90
9450;DHT22;4763;48.370;10.874;2022-11-24T07:14:55;6.50;99.90
9450;DHT22;4763;48.370;10.874;2022-11-24T07:17:42;6.40;99.90
9450;DHT22;4763;48.370;10.874;2022-11-24T07:20:29;6.50;99.90
9450;DHT22;4763;48.370;10.874;2022-11-24T07:23:16;6.50;99.90
9450;DHT22;4763;48.370;10.874;2022-11-24T07:26:04;6.50;99.90
9450;DHT22;4763;48.370;10.874;2022-11-24T07:28:51;6.50;99.90
9450;DHT22;4763;48.370;10.874;2022-11-24T07:31:40;6.50;99.90
9450;DHT22;4763;48.370;10.874;2022-11-24T07:34:27;6.50;99.90
9450;DHT22;4763;48.370;10.874;2022-11-24T07:37:14;6.60;99.90
9450;DHT22;4763;48.370;10.874;2022-11-24T07:40:01;6.70;99.90
9450;DHT22;4763;48.370;10.874;2022-11-24T07:42:48;6.60;99.90
9450;DHT22;4763;48.370;10.874;2022-11-24T07:45:35;6.80;99.90
9450;DHT22;4763;48.370;10.874;2022-11-24T07:48:23;6.80;99.90
9450;DHT22;4763;48.370;10.874;2022-11-24T07:51:11;6.90;99.90
9450;DHT22;4763;48.370;10.874;2022-11-24T07:53:58;6.90;99.90
9450;DHT22;4763;48.370;10.874;2022-11-24T07:56:47;7.00;99.90
9450;DHT22;4763;48.370;10.874;2022-11-24T07:59:38;7.00;99.90
9450;DHT22;4763;48.370;10.874;2022-11-24T08:02:25;7.30;99.90
9450;DHT22;4763;48.370;10.874;2022-11-24T08:05:14;7.40;99.90
9450;DHT22;4763;48.370;10.874;2022-11-24T08:08:01;7.50;99.90
9450;DHT22;4763;48.370;10.874;2022-11-24T08:10:48;7.60;99.90
9450;DHT22;4763;48.370;10.874;2022-11-24T08:13:36;7.70;99.90
9450;DHT22;4763;48.370;10.874;2022-11-24T08:16:23;7.70;99.90
9450;DHT22;4763;48.370;10.874;2022-11-24T08:19:10;7.80;99.90
9450;DHT22;4763;48.370;10.874;2022-11-24T08:21:58;7.80;99.90
9450;DHT22;4763;48.370;10.874;2022-11-24T08:24:46;7.80;99.90
9450;DHT22;4763;48.370;10.874;2022-11-24T08:27:33;7.70;99.90
9450;DHT22;4763;48.370;10.874;2022-11-24T08:30:20;7.80;99.90
9450;DHT22;4763;48.370;10.874;2022-11-24T08:33:08;7.80;99.90
9450;DHT22;4763;48.370;10.874;2022-11-24T08:35:55;7.80;99.90
9450;DHT22;4763;48.370;10.874;2022-11-24T08:38:44;7.90;99.90
9450;DHT22;4763;48.370;10.874;2022-11-24T08:41:31;7.90;99.90
9450;DHT22;4763;48.370;10.874;2022-11-24T08:44:19;7.90;99.90
9450;DHT22;4763;48.370;10.874;2022-11-24T08:47:06;8.10;99.90
9450;DHT22;4763;48.370;10.874;2022-11-24T08:49:53;8.00;99.90
9450;DHT22;4763;48.370;10.874;2022-11-24T08:52:40;8.00;99.90
9450;DHT22;4763;48.370;10.874;2022-11-24T08:55:28;8.00;99.90
9450;DHT22;4763;48.370;10.874;2022-11-24T08:58:15;8.20;99.90
9450;DHT22;4763;48.370;10.874;2022-11-24T09:01:03;8.30;99.90
9450;DHT22;4763;48.370;10.874;2022-11-24T09:03:51;8.40;99.90
9450;DHT22;4763;48.370;10.874;2022-11-24T09:06:38;8.50;99.90
9450;DHT22;4763;48.370;10.874;2022-11-24T09:09:25;8.50;99.90
9450;DHT22;4763;48.370;10.874;2022-11-24T09:12:13;8.60;99.90
9450;DHT22;4763;48.370;10.874;2022-11-24T09:15:00;8.60;99.90
9450;DHT22;4763;48.370;10.874;2022-11-24T09:17:48;8.60;99.90
9450;DHT22;4763;48.370;10.874;2022-11-24T09:20:35;8.60;99.90
9450;DHT22;4763;48.370;10.874;2022-11-24T09:23:22;8.50;99.90
9450;DHT22;4763;48.370;10.874;2022-11-24T09:26:10;8.60;99.90
9450;DHT22;4763;48.370;10.874;2022-11-24T09:29:01;8.60;99.90
9450;DHT22;4763;48.370;10.874;2022-11-24T09:31:48;8.60;99.90
9450;DHT22;4763;48.370;10.874;2022-11-24T09:34:35;8.40;99.90
9450;DHT22;4763;48.370;10.874;2022-11-24T09:37:22;8.30;99.90
9450;DHT22;4763;48.370;10.874;2022-11-24T09:40:11;8.30;99.90
9450;DHT22;4763;48.370;10.874;2022-11-24T09:43:02;8.20;99.90
9450;DHT22;4763;48.370;10.874;2022-11-24T09:45:59;8.20;99.90
9450;DHT22;4763;48.370;10.874;2022-11-24T09:48:53;8.20;99.90
9450;DHT22;4763;48.370;10.874;2022-11-24T09:51:44;8.10;99.90
9450;DHT22;4763;48.370;10.874;2022-11-24T09:54:34;8.00;99.90
9450;DHT22;4763;48.370;10.874;2022-11-24T09:57:24;7.90;99.90
9450;DHT22;4763;48.370;10.874;2022-11-24T10:00:13;8.00;99.90
9450;DHT22;4763;48.370;10.874;2022-11-24T10:03:02;7.80;99.90
9450;DHT22;4763;48.370;10.874;2022-11-24T10:05:50;7.80;99.90
9450;DHT22;4763;48.370;10.874;2022-11-24T10:08:59;7.70;99.90
9450;DHT22;4763;48.370;10.874;2022-11-24T10:11:57;7.60;99.90
9450;DHT22;4763;48.370;10.874;2022-11-24T10:15:03;7.60;99.90
9450;DHT22;4763;48.370;10.874;2022-11-24T10:18:12;7.60;99.90
9450;DHT22;4763;48.370;10.874;2022-11-24T10:21:13;7.60;99.90
9450;DHT22;4763;48.370;10.874;2022-11-24T10:24:26;7.60;99.90
9450;DHT22;4763;48.370;10.874;2022-11-24T10:27:16;7.50;99.90
9450;DHT22;4763;48.370;10.874;2022-11-24T10:30:12;7.50;99.90
9450;DHT22;4763;48.370;10.874;2022-11-24T10:33:02;7.50;99.90
9450;DHT22;4763;48.370;10.874;2022-11-24T10:35:55;7.60;99.90
9450;DHT22;4763;48.370;10.874;2022-11-24T10:38:49;7.60;99.90
9450;DHT22;4763;48.370;10.874;2022-11-24T10:41:41;7.60;99.90
9450;DHT22;4763;48.370;10.874;2022-11-24T10:44:30;7.60;99.90
9450;DHT22;4763;48.370;10.874;2022-11-24T10:47:18;7.60;99.90
9450;DHT22;4763;48.370;10.874;2022-11-24T10:50:14;7.60;99.90
9450;DHT22;4763;48.370;10.874;2022-11-24T10:53:13;7.70;99.90
9450;DHT22;4763;48.370;10.874;2022-11-24T10:56:04;7.70;99.90
9450;DHT22;4763;48.370;10.874;2022-11-24T10:58:51;7.80;99.90
9450;DHT22;4763;48.370;10.874;2022-11-24T11:01:38;7.80;99.90
9450;DHT22;4763;48.370;10.874;2022-11-24T11:04:27;7.80;99.90
9450;DHT22;4763;48.370;10.874;2022-11-24T11:07:16;7.70;99.90
9450;DHT22;4763;48.370;10.874;2022-11-24T11:10:18;7.80;99.90
9450;DHT22;4763;48.370;10.874;2022-11-24T11:13:23;7.80;99.90
9450;DHT22;4763;48.370;10.874;2022-11-24T11:16:22;7.80;99.90
9450;DHT22;4763;48.370;10.874;2022-11-24T11:19:30;7.80;99.90
9450;DHT22;4763;48.370;10.874;2022-11-24T11:22:23;7.90;99.90
9450;DHT22;4763;48.370;10.874;2022-11-24T11:25:19;7.80;99.90
9450;DHT22;4763;48.370;10.874;2022-11-24T11:28:20;7.80;99.90
9450;DHT22;4763;48.370;10.874;2022-11-24T11:31:18;7.70;99.90
9450;DHT22;4763;48.370;10.874;2022-11-24T11:34:13;7.80;99.90
9450;DHT22;4763;48.370;10.874;2022-11-24T11:37:02;7.90;99.90
9450;DHT22;4763;48.370;10.874;2022-11-24T11:39:51;7.90;99.90
9450;DHT22;4763;48.370;10.874;2022-11-24T11:42:45;8.00;99.90
9450;DHT22;4763;48.370;10.874;2022-11-24T11:45:35;8.00;99.90
9450;DHT22;4763;48.370;10.874;2022-11-24T11:48:26;8.10;99.90
9450;DHT22;4763;48.370;10.874;2022-11-24T11:51:26;8.10;99.90
9450;DHT22;4763;48.370;10.874;2022-11-24T11:54:25;8.10;99.90
9450;DHT22;4763;48.370;10.874;2022-11-24T11:57:22;8.10;99.90
9450;DHT22;4763;48.370;10.874;2022-11-24T12:00:14;8.20;99.90
9450;DHT22;4763;48.370;10.874;2022-11-24T12:03:33;8.20;99.90
9450;DHT22;4763;48.370;10.874;2022-11-24T12:06:35;8.40;99.90
9450;DHT22;4763;48.370;10.874;2022-11-24T12:09:38;8.70;99.90
9450;DHT22;4763;48.370;10.874;2022-11-24T12:15:47;8.90;99.90
9450;DHT22;4763;48.370;10.874;2022-11-24T12:18:41;9.20;99.90
9450;DHT22;4763;48.370;10.874;2022-11-24T12:21:34;9.30;99.90
9450;DHT22;4763;48.370;10.874;2022-11-24T12:24:28;9.60;99.90
9450;DHT22;4763;48.370;10.874;2022-11-24T12:27:25;9.80;99.90
9450;DHT22;4763;48.370;10.874;2022-11-24T12:30:15;9.80;99.90
9450;DHT22;4763;48.370;10.874;2022-11-24T12:33:19;9.80;99.90
9450;DHT22;4763;48.370;10.874;2022-11-24T12:36:15;9.40;99.90
9450;DHT22;4763;48.370;10.874;2022-11-24T12:39:06;9.30;99.90
9450;DHT22;4763;48.370;10.874;2022-11-24T12:42:08;9.20;99.90
9450;DHT22;4763;48.370;10.874;2022-11-24T12:45:09;9.00;99.90
9450;DHT22;4763;48.370;10.874;2022-11-24T12:48:15;8.90;99.90
9450;DHT22;4763;48.370;10.874;2022-11-24T12:51:12;8.80;99.90
9450;DHT22;4763;48.370;10.874;2022-11-24T12:54:03;8.80;99.90
9450;DHT22;4763;48.370;10.874;2022-11-24T12:56:55;8.80;99.90
9450;DHT22;4763;48.370;10.874;2022-11-24T12:59:51;8.70;99.90
9450;DHT22;4763;48.370;10.874;2022-11-24T13:02:54;8.70;99.90
9450;DHT22;4763;48.370;10.874;2022-11-24T13:05:52;8.70;99.90
9450;DHT22;4763;48.370;10.874;2022-11-24T13:08:43;8.70;99.90
9450;DHT22;4763;48.370;10.874;2022-11-24T13:11:38;8.70;99.90
9450;DHT22;4763;48.370;10.874;2022-11-24T13:14:29;8.60;99.90
9450;DHT22;4763;48.370;10.874;2022-11-24T13:17:45;8.60;99.90
9450;DHT22;4763;48.370;10.874;2022-11-24T13:20:35;8.50;99.90
9450;DHT22;4763;48.370;10.874;2022-11-24T13:23:25;8.50;99.90
9450;DHT22;4763;48.370;10.874;2022-11-24T13:26:25;8.50;99.90
9450;DHT22;4763;48.370;10.874;2022-11-24T13:29:30;8.40;99.90
9450;DHT22;4763;48.370;10.874;2022-11-24T13:33:00;8.40;99.90
9450;DHT22;4763;48.370;10.874;2022-11-24T13:39:19;8.50;99.90
9450;DHT22;4763;48.370;10.874;2022-11-24T13:42:07;8.40;99.90
9450;DHT22;4763;48.370;10.874;2022-11-24T13:44:55;8.40;99.90
9450;DHT22;4763;48.370;10.874;2022-11-24T13:47:43;8.30;99.90
9450;DHT22;4763;48.370;10.874;2022-11-24T13:51:13;8.20;99.90
9450;DHT22;4763;48.370;10.874;2022-11-24T13:54:09;8.20;99.90
9450;DHT22;4763;48.370;10.874;2022-11-24T13:59:49;8.20;99.90
9450;DHT22;4763;48.370;10.874;2022-11-24T14:02:36;8.20;99.90
9450;DHT22;4763;48.370;10.874;2022-11-24T14:05:32;8.10;99.90
9450;DHT22;4763;48.370;10.874;2022-11-24T14:08:22;8.10;99.90
9450;DHT22;4763;48.370;10.874;2022-11-24T14:11:13;8.10;99.90
9450;DHT22;4763;48.370;10.874;2022-11-24T14:14:11;8.10;99.90
9450;DHT22;4763;48.370;10.874;2022-11-24T14:17:16;8.10;99.90
9450;DHT22;4763;48.370;10.874;2022-11-24T14:20:16;8.20;99.90
9450;DHT22;4763;48.370;10.874;2022-11-24T14:23:08;8.20;99.90
9450;DHT22;4763;48.370;10.874;2022-11-24T14:25:55;8.10;99.90
9450;DHT22;4763;48.370;10.874;2022-11-24T14:28:43;8.10;99.90
9450;DHT22;4763;48.370;10.874;2022-11-24T14:31:31;8.10;99.90
9450;DHT22;4763;48.370;10.874;2022-11-24T14:34:21;8.10;99.90
9450;DHT22;4763;48.370;10.874;2022-11-24T14:37:09;8.00;99.90
9450;DHT22;4763;48.370;10.874;2022-11-24T14:39:56;8.10;99.90
9450;DHT22;4763;48.370;10.874;2022-11-24T14:42:48;8.00;99.90
9450;DHT22;4763;48.370;10.874;2022-11-24T14:45:36;7.90;99.90
9450;DHT22;4763;48.370;10.874;2022-11-24T14:48:26;8.00;99.90
9450;DHT22;4763;48.370;10.874;2022-11-24T14:51:18;8.00;99.90
9450;DHT22;4763;48.370;10.874;2022-11-24T14:54:13;7.90;99.90
9450;DHT22;4763;48.370;10.874;2022-11-24T14:57:02;8.00;99.90
9450;DHT22;4763;48.370;10.874;2022-11-24T15:00:14;7.90;99.90
9450;DHT22;4763;48.370;10.874;2022-11-24T15:03:14;7.90;99.90
9450;DHT22;4763;48.370;10.874;2022-11-24T15:06:03;7.80;99.90
9450;DHT22;4763;48.370;10.874;2022-11-24T15:08:51;7.80;99.90
9450;DHT22;4763;48.370;10.874;2022-11-24T15:11:38;7.80;99.90
9450;DHT22;4763;48.370;10.874;2022-11-24T15:14:43;7.80;99.90
9450;DHT22;4763;48.370;10.874;2022-11-24T15:17:32;7.80;99.90
9450;DHT22;4763;48.370;10.874;2022-11-24T15:20:23;7.80;99.90
9450;DHT22;4763;48.370;10.874;2022-11-24T15:23:19;7.70;99.90
9450;DHT22;4763;48.370;10.874;2022-11-24T15:26:23;7.80;99.90
9450;DHT22;4763;48.370;10.874;2022-11-24T15:29:11;7.70;99.90
9450;DHT22;4763;48.370;10.874;2022-11-24T15:31:58;7.70;99.90
9450;DHT22;4763;48.370;10.874;2022-11-24T15:34:45;7.60;99.90
9450;DHT22;4763;48.370;10.874;2022-11-24T15:37:32;7.60;99.90
9450;DHT22;4763;48.370;10.874;2022-11-24T15:40:19;7.50;99.90
9450;DHT22;4763;48.370;10.874;2022-11-24T15:43:17;7.50;99.90
9450;DHT22;4763;48.370;10.874;2022-11-24T15:46:07;7.40;99.90
9450;DHT22;4763;48.370;10.874;2022-11-24T15:48:55;7.40;99.90
9450;DHT22;4763;48.370;10.874;2022-11-24T15:51:43;7.30;99.90
9450;DHT22;4763;48.370;10.874;2022-11-24T15:54:32;7.30;99.90
9450;DHT22;4763;48.370;10.874;2022-11-24T15:57:19;7.20;99.90
9450;DHT22;4763;48.370;10.874;2022-11-24T16:00:21;7.20;99.90
9450;DHT22;4763;48.370;10.874;2022-11-24T16:03:09;7.10;99.90
9450;DHT22;4763;48.370;10.874;2022-11-24T16:05:56;7.00;99.90
9450;DHT22;4763;48.370;10.874;2022-11-24T16:08:44;6.90;99.90
9450;DHT22;4763;48.370;10.874;2022-11-24T16:11:31;6.80;99.90
9450;DHT22;4763;48.370;10.874;2022-11-24T16:14:18;6.80;99.90
9450;DHT22;4763;48.370;10.874;2022-11-24T16:17:06;6.70;99.90
9450;DHT22;4763;48.370;10.874;2022-11-24T16:19:53;6.70;99.90
9450;DHT22;4763;48.370;10.874;2022-11-24T16:22:41;6.70;99.90
9450;DHT22;4763;48.370;10.874;2022-11-24T16:25:28;6.70;99.90
9450;DHT22;4763;48.370;10.874;2022-11-24T16:28:15;6.70;99.90
9450;DHT22;4763;48.370;10.874;2022-11-24T16:31:02;6.80;99.90
9450;DHT22;4763;48.370;10.874;2022-11-24T16:33:51;6.70;99.90
9450;DHT22;4763;48.370;10.874;2022-11-24T16:36:38;6.70;99.90
9450;DHT22;4763;48.370;10.874;2022-11-24T16:39:25;6.60;99.90
9450;DHT22;4763;48.370;10.874;2022-11-24T16:42:12;6.50;99.90
9450;DHT22;4763;48.370;10.874;2022-11-24T16:44:59;6.50;99.90
9450;DHT22;4763;48.370;10.874;2022-11-24T16:47:46;6.40;99.90
9450;DHT22;4763;48.370;10.874;2022-11-24T16:50:36;6.30;99.90
9450;DHT22;4763;48.370;10.874;2022-11-24T16:53:24;6.20;99.90
9450;DHT22;4763;48.370;10.874;2022-11-24T16:56:19;6.20;99.90
9450;DHT22;4763;48.370;10.874;2022-11-24T16:59:06;6.10;99.90
9450;DHT22;4763;48.370;10.874;2022-11-24T17:01:53;6.10;99.90
9450;DHT22;4763;48.370;10.874;2022-11-24T17:04:40;6.00;99.90
9450;DHT22;4763;48.370;10.874;2022-11-24T17:07:29;5.90;99.90
9450;DHT22;4763;48.370;10.874;2022-11-24T17:10:16;5.90;99.90
9450;DHT22;4763;48.370;10.874;2022-11-24T17:13:03;5.80;99.90
9450;DHT22;4763;48.370;10.874;2022-11-24T17:15:50;5.70;99.90
9450;DHT22;4763;48.370;10.874;2022-11-24T17:18:38;5.70;99.90
9450;DHT22;4763;48.370;10.874;2022-11-24T17:21:26;5.80;99.90
9450;DHT22;4763;48.370;10.874;2022-11-24T17:24:17;5.80;99.90
9450;DHT22;4763;48.370;10.874;2022-11-24T17:27:05;5.90;99.90
9450;DHT22;4763;48.370;10.874;2022-11-24T17:29:52;5.80;99.90
9450;DHT22;4763;48.370;10.874;2022-11-24T17:32:39;5.70;99.90
9450;DHT22;4763;48.370;10.874;2022-11-24T17:35:26;5.70;99.90
9450;DHT22;4763;48.370;10.874;2022-11-24T17:38:13;5.50;99.90
9450;DHT22;4763;48.370;10.874;2022-11-24T17:41:02;5.50;99.90
9450;DHT22;4763;48.370;10.874;2022-11-24T17:43:50;5.50;99.90
9450;DHT22;4763;48.370;10.874;2022-11-24T17:46:38;5.40;99.90
9450;DHT22;4763;48.370;10.874;2022-11-24T17:49:25;5.40;99.90
9450;DHT22;4763;48.370;10.874;2022-11-24T17:52:12;5.30;99.90
9450;DHT22;4763;48.370;10.874;2022-11-24T17:54:59;5.30;99.90
9450;DHT22;4763;48.370;10.874;2022-11-24T17:57:48;5.20;99.90
9450;DHT22;4763;48.370;10.874;2022-11-24T18:00:35;5.20;99.90
9450;DHT22;4763;48.370;10.874;2022-11-24T18:03:22;5.20;99.90
9450;DHT22;4763;48.370;10.874;2022-11-24T18:06:11;5.10;99.90
9450;DHT22;4763;48.370;10.874;2022-11-24T18:08:58;5.10;99.90
9450;DHT22;4763;48.370;10.874;2022-11-24T18:11:46;5.10;99.90
9450;DHT22;4763;48.370;10.874;2022-11-24T18:14:34;5.00;99.90
9450;DHT22;4763;48.370;10.874;2022-11-24T18:17:21;4.90;99.90
9450;DHT22;4763;48.370;10.874;2022-11-24T18:20:09;4.90;99.90
9450;DHT22;4763;48.370;10.874;2022-11-24T18:22:57;4.80;99.90
9450;DHT22;4763;48.370;10.874;2022-11-24T18:25:51;5.00;99.90
9450;DHT22;4763;48.370;10.874;2022-11-24T18:28:38;5.00;99.90
9450;DHT22;4763;48.370;10.874;2022-11-24T18:31:26;5.00;99.90
9450;DHT22;4763;48.370;10.874;2022-11-24T18:34:14;5.10;99.90
9450;DHT22;4763;48.370;10.874;2022-11-24T18:37:01;5.30;99.90
9450;DHT22;4763;48.370;10.874;2022-11-24T18:39:48;5.50;99.90
9450;DHT22;4763;48.370;10.874;2022-11-24T18:42:35;5.50;99.90